Terminal Aerodrome Forecast
Issued by NWS Binghamton, NY

Home | Current Version | Previous Version | Text Only | Print | Product List | Glossary On
Versions: 1 2 3 4 5 6 7 8 9 10 11 12 13 14 15 16 17
000
FTUS41 KBGM 171128
TAFSYR
TAF
KSYR 171128Z 1712/1812 VRB03KT P6SM SKC
     FM171400 22010G18KT P6SM SCT040
     FM180100 21005KT P6SM SKC WS020/26040KT
     FM181000 20003KT P6SM FEW020=

USA.gov is the U.S. government's official web portal to all federal, state and local government web resources and services.